aviador You're here:

YPPD Decoded Metar

PORT HEDLAND in AUSTRALIA
Report Time2018-07-18 20:00:00
UTC Time2018-07-18 20:21:02
Flight Rules vfr VFR
Wind200° at 08 kt
W.Decomp.*RWY 18: 7.6 kt HW 2.6 kt RCW
RWY 14: 4.1 kt HW 6.9 kt RCW
W.Rank200° ranks 29
Current wind is above 200° avg. (6.5)
Visibility9999 m
Phenomena:N/A
Clouds:N/A
Expected CloudBase > 1,600 ft AGL from Temp-Dew spread
CeilingNone
Temp14°C (ISA -1)
Dew Point10°C (77% RH)
AAT11.2°C
QNH1014 hPa
Density Alt36 ft
Elevation20 ft
Report Wrong Elevation
Raw Report
METAR YPPD 182000Z AUTO 20008KT 9999 // NCD 14/10 Q1014=

Extra information for YPPD:More info

Metar Taf Metar & Taf Last 4 Metars F.Rules Stats Wind Profile Meteogram Temp Stats Airport Information Weather charts Add Link Nearby VenuesMetar ALERT Operation Metar Decoded Social comments